sensor_id;sensor_type;location;lat;lon;timestamp;P1;durP1;ratioP1;P2;durP2;ratioP2
1987;SDS011;12775;46.994;15.498;2024-02-21T00:00:57;10.52;;;8.08;;
1987;SDS011;12775;46.994;15.498;2024-02-21T00:03:24;9.70;;;8.22;;
1987;SDS011;12775;46.994;15.498;2024-02-21T00:05:50;10.72;;;8.48;;
1987;SDS011;12775;46.994;15.498;2024-02-21T00:08:17;10.00;;;8.68;;
1987;SDS011;12775;46.994;15.498;2024-02-21T00:10:44;9.38;;;8.42;;
1987;SDS011;12775;46.994;15.498;2024-02-21T00:13:11;10.84;;;8.84;;
1987;SDS011;12775;46.994;15.498;2024-02-21T00:15:38;12.76;;;8.50;;
1987;SDS011;12775;46.994;15.498;2024-02-21T00:18:04;13.10;;;9.64;;
1987;SDS011;12775;46.994;15.498;2024-02-21T00:20:31;12.28;;;10.08;;
1987;SDS011;12775;46.994;15.498;2024-02-21T00:22:57;12.38;;;10.02;;
1987;SDS011;12775;46.994;15.498;2024-02-21T00:25:24;14.14;;;10.40;;
1987;SDS011;12775;46.994;15.498;2024-02-21T00:27:51;11.02;;;10.02;;
1987;SDS011;12775;46.994;15.498;2024-02-21T00:30:17;11.36;;;9.46;;
1987;SDS011;12775;46.994;15.498;2024-02-21T00:32:44;14.60;;;9.24;;
1987;SDS011;12775;46.994;15.498;2024-02-21T00:35:10;12.06;;;9.34;;
1987;SDS011;12775;46.994;15.498;2024-02-21T00:37:37;12.22;;;9.48;;
1987;SDS011;12775;46.994;15.498;2024-02-21T00:40:04;18.06;;;12.08;;
1987;SDS011;12775;46.994;15.498;2024-02-21T00:42:31;10.26;;;8.88;;
1987;SDS011;12775;46.994;15.498;2024-02-21T00:44:58;17.52;;;12.26;;
1987;SDS011;12775;46.994;15.498;2024-02-21T00:47:24;15.00;;;9.50;;
1987;SDS011;12775;46.994;15.498;2024-02-21T00:49:51;9.88;;;7.52;;
1987;SDS011;12775;46.994;15.498;2024-02-21T00:52:19;11.14;;;7.90;;
1987;SDS011;12775;46.994;15.498;2024-02-21T00:54:45;9.06;;;7.40;;
1987;SDS011;12775;46.994;15.498;2024-02-21T00:57:12;7.86;;;6.28;;
1987;SDS011;12775;46.994;15.498;2024-02-21T00:59:39;10.16;;;7.56;;
1987;SDS011;12775;46.994;15.498;2024-02-21T01:02:06;9.20;;;8.12;;
1987;SDS011;12775;46.994;15.498;2024-02-21T01:04:33;8.52;;;7.66;;
1987;SDS011;12775;46.994;15.498;2024-02-21T01:06:59;8.00;;;7.20;;
1987;SDS011;12775;46.994;15.498;2024-02-21T01:09:26;10.50;;;7.98;;
1987;SDS011;12775;46.994;15.498;2024-02-21T01:11:54;8.00;;;7.20;;
1987;SDS011;12775;46.994;15.498;2024-02-21T01:14:20;10.42;;;8.16;;
1987;SDS011;12775;46.994;15.498;2024-02-21T01:16:47;14.30;;;9.78;;
1987;SDS011;12775;46.994;15.498;2024-02-21T01:19:14;10.46;;;8.68;;
1987;SDS011;12775;46.994;15.498;2024-02-21T01:21:40;8.88;;;7.74;;
1987;SDS011;12775;46.994;15.498;2024-02-21T01:24:07;11.58;;;9.22;;
1987;SDS011;12775;46.994;15.498;2024-02-21T01:26:33;11.08;;;9.14;;
1987;SDS011;12775;46.994;15.498;2024-02-21T01:29:00;12.78;;;11.36;;
1987;SDS011;12775;46.994;15.498;2024-02-21T01:31:27;16.66;;;12.16;;
1987;SDS011;12775;46.994;15.498;2024-02-21T01:33:53;12.70;;;11.10;;
1987;SDS011;12775;46.994;15.498;2024-02-21T01:36:20;15.14;;;11.82;;
1987;SDS011;12775;46.994;15.498;2024-02-21T01:38:46;10.80;;;9.64;;
1987;SDS011;12775;46.994;15.498;2024-02-21T01:41:13;14.82;;;12.20;;
1987;SDS011;12775;46.994;15.498;2024-02-21T01:43:39;16.70;;;13.10;;
1987;SDS011;12775;46.994;15.498;2024-02-21T01:46:06;18.94;;;13.04;;
1987;SDS011;12775;46.994;15.498;2024-02-21T01:48:33;16.54;;;11.78;;
1987;SDS011;12775;46.994;15.498;2024-02-21T01:50:59;16.36;;;9.88;;
1987;SDS011;12775;46.994;15.498;2024-02-21T01:53:30;13.64;;;9.34;;
1987;SDS011;12775;46.994;15.498;2024-02-21T01:55:56;9.40;;;8.26;;
1987;SDS011;12775;46.994;15.498;2024-02-21T01:58:22;11.86;;;8.74;;
1987;SDS011;12775;46.994;15.498;2024-02-21T02:00:49;12.90;;;9.02;;
1987;SDS011;12775;46.994;15.498;2024-02-21T02:03:16;10.16;;;8.68;;
1987;SDS011;12775;46.994;15.498;2024-02-21T02:05:44;12.00;;;7.24;;
1987;SDS011;12775;46.994;15.498;2024-02-21T02:08:14;10.16;;;6.84;;
1987;SDS011;12775;46.994;15.498;2024-02-21T02:10:40;8.56;;;7.76;;
1987;SDS011;12775;46.994;15.498;2024-02-21T02:13:08;13.02;;;8.48;;
1987;SDS011;12775;46.994;15.498;2024-02-21T02:18:08;9.66;;;8.42;;
1987;SDS011;12775;46.994;15.498;2024-02-21T02:20:35;14.28;;;10.62;;
1987;SDS011;12775;46.994;15.498;2024-02-21T02:23:05;9.82;;;8.54;;
1987;SDS011;12775;46.994;15.498;2024-02-21T02:25:43;13.56;;;9.82;;
1987;SDS011;12775;46.994;15.498;2024-02-21T02:28:10;11.40;;;8.92;;
1987;SDS011;12775;46.994;15.498;2024-02-21T02:30:36;11.34;;;10.14;;
1987;SDS011;12775;46.994;15.498;2024-02-21T02:33:03;14.48;;;10.74;;
1987;SDS011;12775;46.994;15.498;2024-02-21T02:35:30;11.76;;;10.10;;
1987;SDS011;12775;46.994;15.498;2024-02-21T02:37:56;10.24;;;8.26;;
1987;SDS011;12775;46.994;15.498;2024-02-21T02:40:23;10.68;;;9.58;;
1987;SDS011;12775;46.994;15.498;2024-02-21T02:42:49;10.48;;;9.28;;
1987;SDS011;12775;46.994;15.498;2024-02-21T02:45:17;8.68;;;7.78;;
1987;SDS011;12775;46.994;15.498;2024-02-21T02:47:44;11.02;;;8.92;;
1987;SDS011;12775;46.994;15.498;2024-02-21T02:50:11;10.90;;;9.58;;
1987;SDS011;12775;46.994;15.498;2024-02-21T02:52:38;11.42;;;7.70;;
1987;SDS011;12775;46.994;15.498;2024-02-21T02:55:05;8.86;;;8.00;;
1987;SDS011;12775;46.994;15.498;2024-02-21T02:57:32;10.40;;;7.26;;
1987;SDS011;12775;46.994;15.498;2024-02-21T02:59:58;10.70;;;7.70;;
1987;SDS011;12775;46.994;15.498;2024-02-21T03:02:25;11.66;;;6.92;;
1987;SDS011;12775;46.994;15.498;2024-02-21T03:04:51;7.10;;;6.00;;
1987;SDS011;12775;46.994;15.498;2024-02-21T03:07:18;6.42;;;5.30;;
1987;SDS011;12775;46.994;15.498;2024-02-21T03:09:45;17.02;;;6.54;;
1987;SDS011;12775;46.994;15.498;2024-02-21T03:12:11;7.98;;;5.22;;
1987;SDS011;12775;46.994;15.498;2024-02-21T03:14:38;6.60;;;5.68;;
1987;SDS011;12775;46.994;15.498;2024-02-21T03:17:04;13.18;;;5.88;;
1987;SDS011;12775;46.994;15.498;2024-02-21T03:19:31;7.20;;;4.30;;
1987;SDS011;12775;46.994;15.498;2024-02-21T03:21:57;5.54;;;5.00;;
1987;SDS011;12775;46.994;15.498;2024-02-21T03:24:24;5.84;;;5.24;;
1987;SDS011;12775;46.994;15.498;2024-02-21T03:26:51;7.94;;;5.38;;
1987;SDS011;12775;46.994;15.498;2024-02-21T03:29:17;5.88;;;4.88;;
1987;SDS011;12775;46.994;15.498;2024-02-21T03:31:44;7.06;;;4.98;;
1987;SDS011;12775;46.994;15.498;2024-02-21T03:34:10;6.06;;;4.58;;
1987;SDS011;12775;46.994;15.498;2024-02-21T03:36:37;7.94;;;4.76;;
1987;SDS011;12775;46.994;15.498;2024-02-21T03:39:04;8.32;;;6.02;;
1987;SDS011;12775;46.994;15.498;2024-02-21T03:41:30;6.08;;;4.84;;
1987;SDS011;12775;46.994;15.498;2024-02-21T03:43:57;7.10;;;5.72;;
1987;SDS011;12775;46.994;15.498;2024-02-21T03:46:24;7.88;;;5.92;;
1987;SDS011;12775;46.994;15.498;2024-02-21T03:48:50;7.76;;;5.98;;
1987;SDS011;12775;46.994;15.498;2024-02-21T03:51:17;7.80;;;6.14;;
1987;SDS011;12775;46.994;15.498;2024-02-21T03:53:43;10.88;;;5.70;;
1987;SDS011;12775;46.994;15.498;2024-02-21T03:56:10;5.68;;;5.18;;
1987;SDS011;12775;46.994;15.498;2024-02-21T03:58:36;7.00;;;5.60;;
1987;SDS011;12775;46.994;15.498;2024-02-21T04:01:03;6.54;;;4.42;;
1987;SDS011;12775;46.994;15.498;2024-02-21T04:03:30;7.68;;;5.30;;
1987;SDS011;12775;46.994;15.498;2024-02-21T04:05:56;5.18;;;4.26;;
1987;SDS011;12775;46.994;15.498;2024-02-21T04:08:23;5.82;;;3.84;;
1987;SDS011;12775;46.994;15.498;2024-02-21T04:10:49;5.76;;;4.92;;
1987;SDS011;12775;46.994;15.498;2024-02-21T04:13:16;6.38;;;5.18;;
1987;SDS011;12775;46.994;15.498;2024-02-21T04:15:42;6.52;;;4.46;;
1987;SDS011;12775;46.994;15.498;2024-02-21T04:18:09;5.92;;;4.56;;
1987;SDS011;12775;46.994;15.498;2024-02-21T04:20:36;5.96;;;3.90;;
1987;SDS011;12775;46.994;15.498;2024-02-21T04:23:03;4.78;;;4.22;;
1987;SDS011;12775;46.994;15.498;2024-02-21T04:25:30;8.60;;;5.16;;
1987;SDS011;12775;46.994;15.498;2024-02-21T04:27:56;7.02;;;4.82;;
1987;SDS011;12775;46.994;15.498;2024-02-21T04:30:23;7.86;;;5.96;;
1987;SDS011;12775;46.994;15.498;2024-02-21T04:32:49;5.34;;;3.82;;
1987;SDS011;12775;46.994;15.498;2024-02-21T04:35:16;6.32;;;5.30;;
1987;SDS011;12775;46.994;15.498;2024-02-21T04:37:43;5.86;;;4.96;;
1987;SDS011;12775;46.994;15.498;2024-02-21T04:40:11;9.86;;;5.28;;
1987;SDS011;12775;46.994;15.498;2024-02-21T04:42:38;6.68;;;5.72;;
1987;SDS011;12775;46.994;15.498;2024-02-21T04:45:05;6.78;;;4.72;;
1987;SDS011;12775;46.994;15.498;2024-02-21T04:47:32;5.36;;;3.84;;
1987;SDS011;12775;46.994;15.498;2024-02-21T04:49:59;6.00;;;4.28;;
1987;SDS011;12775;46.994;15.498;2024-02-21T04:52:25;6.68;;;5.54;;
1987;SDS011;12775;46.994;15.498;2024-02-21T04:54:52;8.50;;;5.56;;
1987;SDS011;12775;46.994;15.498;2024-02-21T04:57:18;6.64;;;5.18;;
1987;SDS011;12775;46.994;15.498;2024-02-21T04:59:45;11.06;;;8.00;;
1987;SDS011;12775;46.994;15.498;2024-02-21T05:02:11;19.82;;;9.44;;
1987;SDS011;12775;46.994;15.498;2024-02-21T05:04:38;12.20;;;8.80;;
1987;SDS011;12775;46.994;15.498;2024-02-21T05:07:05;14.52;;;8.72;;
1987;SDS011;12775;46.994;15.498;2024-02-21T05:09:31;11.34;;;8.90;;
1987;SDS011;12775;46.994;15.498;2024-02-21T05:11:58;15.92;;;8.14;;
1987;SDS011;12775;46.994;15.498;2024-02-21T05:14:26;10.16;;;7.40;;
1987;SDS011;12775;46.994;15.498;2024-02-21T05:16:53;8.78;;;7.22;;
1987;SDS011;12775;46.994;15.498;2024-02-21T05:19:19;9.66;;;8.04;;
1987;SDS011;12775;46.994;15.498;2024-02-21T05:21:46;9.72;;;6.72;;
1987;SDS011;12775;46.994;15.498;2024-02-21T05:24:12;7.56;;;6.78;;
1987;SDS011;12775;46.994;15.498;2024-02-21T05:26:39;6.96;;;4.40;;
1987;SDS011;12775;46.994;15.498;2024-02-21T05:29:05;7.66;;;5.72;;
1987;SDS011;12775;46.994;15.498;2024-02-21T05:34:11;5.48;;;4.90;;
1987;SDS011;12775;46.994;15.498;2024-02-21T05:36:37;5.68;;;4.48;;
1987;SDS011;12775;46.994;15.498;2024-02-21T05:39:03;5.34;;;4.22;;
1987;SDS011;12775;46.994;15.498;2024-02-21T05:41:30;6.44;;;4.78;;
1987;SDS011;12775;46.994;15.498;2024-02-21T05:43:57;8.56;;;5.04;;
1987;SDS011;12775;46.994;15.498;2024-02-21T05:46:23;27.88;;;17.56;;
1987;SDS011;12775;46.994;15.498;2024-02-21T05:48:51;12.86;;;9.18;;
1987;SDS011;12775;46.994;15.498;2024-02-21T05:51:17;34.86;;;11.06;;
1987;SDS011;12775;46.994;15.498;2024-02-21T05:53:44;27.92;;;11.04;;
1987;SDS011;12775;46.994;15.498;2024-02-21T05:56:11;17.10;;;9.06;;
1987;SDS011;12775;46.994;15.498;2024-02-21T05:58:37;9.84;;;7.66;;
1987;SDS011;12775;46.994;15.498;2024-02-21T06:01:04;13.16;;;8.10;;
1987;SDS011;12775;46.994;15.498;2024-02-21T06:03:30;11.02;;;7.94;;
1987;SDS011;12775;46.994;15.498;2024-02-21T06:05:57;14.98;;;10.86;;
1987;SDS011;12775;46.994;15.498;2024-02-21T06:08:23;15.62;;;10.20;;
1987;SDS011;12775;46.994;15.498;2024-02-21T06:10:50;10.70;;;8.82;;
1987;SDS011;12775;46.994;15.498;2024-02-21T06:13:18;19.06;;;10.22;;
1987;SDS011;12775;46.994;15.498;2024-02-21T06:15:45;19.14;;;13.50;;
1987;SDS011;12775;46.994;15.498;2024-02-21T06:18:12;22.14;;;11.90;;
1987;SDS011;12775;46.994;15.498;2024-02-21T06:20:38;16.02;;;9.54;;
1987;SDS011;12775;46.994;15.498;2024-02-21T06:23:05;13.88;;;9.02;;
1987;SDS011;12775;46.994;15.498;2024-02-21T06:25:31;12.04;;;8.86;;
1987;SDS011;12775;46.994;15.498;2024-02-21T06:27:59;16.92;;;9.32;;
1987;SDS011;12775;46.994;15.498;2024-02-21T06:30:25;13.20;;;10.78;;
1987;SDS011;12775;46.994;15.498;2024-02-21T06:32:52;20.42;;;13.14;;
1987;SDS011;12775;46.994;15.498;2024-02-21T06:35:19;27.22;;;15.10;;
1987;SDS011;12775;46.994;15.498;2024-02-21T06:37:46;23.62;;;16.02;;
1987;SDS011;12775;46.994;15.498;2024-02-21T06:40:13;20.96;;;16.00;;
1987;SDS011;12775;46.994;15.498;2024-02-21T06:42:39;24.76;;;16.02;;
1987;SDS011;12775;46.994;15.498;2024-02-21T06:45:06;25.58;;;18.20;;
1987;SDS011;12775;46.994;15.498;2024-02-21T06:47:33;37.92;;;31.74;;
1987;SDS011;12775;46.994;15.498;2024-02-21T06:50:00;23.32;;;16.98;;
1987;SDS011;12775;46.994;15.498;2024-02-21T06:52:28;15.24;;;10.44;;
1987;SDS011;12775;46.994;15.498;2024-02-21T06:54:54;10.64;;;9.20;;
1987;SDS011;12775;46.994;15.498;2024-02-21T06:57:21;11.94;;;9.76;;
1987;SDS011;12775;46.994;15.498;2024-02-21T06:59:47;13.32;;;11.30;;
1987;SDS011;12775;46.994;15.498;2024-02-21T07:02:14;21.04;;;14.56;;
1987;SDS011;12775;46.994;15.498;2024-02-21T07:04:41;25.36;;;15.80;;
1987;SDS011;12775;46.994;15.498;2024-02-21T07:07:07;32.96;;;19.68;;
1987;SDS011;12775;46.994;15.498;2024-02-21T07:09:34;23.42;;;19.18;;
1987;SDS011;12775;46.994;15.498;2024-02-21T07:12:00;36.08;;;15.82;;
1987;SDS011;12775;46.994;15.498;2024-02-21T07:14:28;27.38;;;16.78;;
1987;SDS011;12775;46.994;15.498;2024-02-21T07:16:55;29.44;;;16.30;;
1987;SDS011;12775;46.994;15.498;2024-02-21T07:19:21;22.32;;;15.02;;
1987;SDS011;12775;46.994;15.498;2024-02-21T07:21:48;17.40;;;12.80;;
1987;SDS011;12775;46.994;15.498;2024-02-21T07:24:14;27.58;;;15.72;;
1987;SDS011;12775;46.994;15.498;2024-02-21T07:26:41;22.28;;;13.04;;
1987;SDS011;12775;46.994;15.498;2024-02-21T07:29:07;17.30;;;9.44;;
1987;SDS011;12775;46.994;15.498;2024-02-21T07:31:41;16.10;;;8.86;;
1987;SDS011;12775;46.994;15.498;2024-02-21T07:34:08;14.74;;;10.12;;
1987;SDS011;12775;46.994;15.498;2024-02-21T07:36:34;13.84;;;6.96;;
1987;SDS011;12775;46.994;15.498;2024-02-21T07:39:01;9.34;;;6.76;;
1987;SDS011;12775;46.994;15.498;2024-02-21T07:41:27;13.16;;;6.72;;
1987;SDS011;12775;46.994;15.498;2024-02-21T07:43:55;12.80;;;7.30;;
1987;SDS011;12775;46.994;15.498;2024-02-21T07:46:21;9.42;;;7.30;;
1987;SDS011;12775;46.994;15.498;2024-02-21T07:48:48;9.38;;;7.90;;
1987;SDS011;12775;46.994;15.498;2024-02-21T07:51:15;8.84;;;5.80;;
1987;SDS011;12775;46.994;15.498;2024-02-21T07:53:42;11.92;;;6.08;;
1987;SDS011;12775;46.994;15.498;2024-02-21T07:56:08;7.66;;;5.58;;
1987;SDS011;12775;46.994;15.498;2024-02-21T07:58:35;7.50;;;5.78;;
1987;SDS011;12775;46.994;15.498;2024-02-21T08:01:02;10.08;;;4.88;;
1987;SDS011;12775;46.994;15.498;2024-02-21T08:03:28;9.60;;;4.92;;
1987;SDS011;12775;46.994;15.498;2024-02-21T08:05:55;9.44;;;5.94;;
1987;SDS011;12775;46.994;15.498;2024-02-21T08:08:21;8.84;;;4.80;;
1987;SDS011;12775;46.994;15.498;2024-02-21T08:10:49;9.24;;;4.72;;
1987;SDS011;12775;46.994;15.498;2024-02-21T08:13:16;5.32;;;4.82;;
1987;SDS011;12775;46.994;15.498;2024-02-21T08:15:43;10.92;;;5.42;;
1987;SDS011;12775;46.994;15.498;2024-02-21T08:18:10;6.96;;;5.66;;
1987;SDS011;12775;46.994;15.498;2024-02-21T08:20:40;13.04;;;6.08;;
1987;SDS011;12775;46.994;15.498;2024-02-21T08:23:09;7.82;;;6.20;;
1987;SDS011;12775;46.994;15.498;2024-02-21T08:25:36;10.42;;;6.22;;
1987;SDS011;12775;46.994;15.498;2024-02-21T08:28:03;5.92;;;5.20;;
1987;SDS011;12775;46.994;15.498;2024-02-21T08:30:30;7.24;;;5.08;;
1987;SDS011;12775;46.994;15.498;2024-02-21T08:32:57;4.52;;;3.12;;
1987;SDS011;12775;46.994;15.498;2024-02-21T08:35:24;3.94;;;2.72;;
1987;SDS011;12775;46.994;15.498;2024-02-21T08:37:51;4.02;;;2.72;;
1987;SDS011;12775;46.994;15.498;2024-02-21T08:40:19;7.16;;;3.24;;
1987;SDS011;12775;46.994;15.498;2024-02-21T08:42:46;7.18;;;3.58;;
1987;SDS011;12775;46.994;15.498;2024-02-21T08:45:12;4.94;;;3.36;;
1987;SDS011;12775;46.994;15.498;2024-02-21T08:47:39;4.48;;;3.34;;
1987;SDS011;12775;46.994;15.498;2024-02-21T08:50:06;4.02;;;3.56;;
1987;SDS011;12775;46.994;15.498;2024-02-21T08:52:35;5.40;;;3.30;;
1987;SDS011;12775;46.994;15.498;2024-02-21T08:55:03;3.96;;;3.60;;
1987;SDS011;12775;46.994;15.498;2024-02-21T08:57:29;6.78;;;3.50;;
1987;SDS011;12775;46.994;15.498;2024-02-21T08:59:56;4.46;;;3.28;;
1987;SDS011;12775;46.994;15.498;2024-02-21T09:02:23;3.38;;;3.00;;
1987;SDS011;12775;46.994;15.498;2024-02-21T09:04:50;3.76;;;2.80;;
1987;SDS011;12775;46.994;15.498;2024-02-21T09:07:16;3.40;;;3.08;;
1987;SDS011;12775;46.994;15.498;2024-02-21T09:09:44;4.40;;;2.86;;
1987;SDS011;12775;46.994;15.498;2024-02-21T09:12:10;6.60;;;3.18;;
1987;SDS011;12775;46.994;15.498;2024-02-21T09:14:37;6.04;;;3.78;;
1987;SDS011;12775;46.994;15.498;2024-02-21T09:17:05;3.08;;;2.78;;
1987;SDS011;12775;46.994;15.498;2024-02-21T09:19:33;5.78;;;3.62;;
1987;SDS011;12775;46.994;15.498;2024-02-21T09:21:59;3.72;;;3.10;;
1987;SDS011;12775;46.994;15.498;2024-02-21T09:24:26;4.84;;;2.62;;
1987;SDS011;12775;46.994;15.498;2024-02-21T09:26:53;8.20;;;4.84;;
1987;SDS011;12775;46.994;15.498;2024-02-21T09:29:19;4.16;;;3.76;;
1987;SDS011;12775;46.994;15.498;2024-02-21T09:31:46;5.12;;;3.00;;
1987;SDS011;12775;46.994;15.498;2024-02-21T09:34:13;4.92;;;3.12;;
1987;SDS011;12775;46.994;15.498;2024-02-21T09:36:39;4.04;;;3.02;;
1987;SDS011;12775;46.994;15.498;2024-02-21T09:39:06;5.30;;;4.20;;
1987;SDS011;12775;46.994;15.498;2024-02-21T09:41:32;6.52;;;3.76;;
1987;SDS011;12775;46.994;15.498;2024-02-21T09:43:59;5.18;;;3.40;;
1987;SDS011;12775;46.994;15.498;2024-02-21T09:46:33;5.20;;;3.40;;
1987;SDS011;12775;46.994;15.498;2024-02-21T09:49:08;4.06;;;3.34;;
1987;SDS011;12775;46.994;15.498;2024-02-21T09:51:35;5.50;;;3.78;;
1987;SDS011;12775;46.994;15.498;2024-02-21T09:54:02;6.40;;;3.52;;
1987;SDS011;12775;46.994;15.498;2024-02-21T09:56:29;7.54;;;3.42;;
1987;SDS011;12775;46.994;15.498;2024-02-21T09:58:55;5.80;;;3.24;;
1987;SDS011;12775;46.994;15.498;2024-02-21T10:01:22;3.94;;;3.28;;
1987;SDS011;12775;46.994;15.498;2024-02-21T10:03:49;3.78;;;2.72;;
1987;SDS011;12775;46.994;15.498;2024-02-21T10:06:15;5.00;;;3.56;;
1987;SDS011;12775;46.994;15.498;2024-02-21T10:08:42;3.70;;;3.40;;
1987;SDS011;12775;46.994;15.498;2024-02-21T10:11:08;3.82;;;3.48;;
1987;SDS011;12775;46.994;15.498;2024-02-21T10:13:36;9.46;;;3.30;;
1987;SDS011;12775;46.994;15.498;2024-02-21T10:16:06;9.22;;;3.24;;
1987;SDS011;12775;46.994;15.498;2024-02-21T10:18:33;8.22;;;3.62;;
1987;SDS011;12775;46.994;15.498;2024-02-21T10:21:00;3.92;;;3.02;;
1987;SDS011;12775;46.994;15.498;2024-02-21T10:23:27;6.02;;;3.88;;
1987;SDS011;12775;46.994;15.498;2024-02-21T10:25:54;3.30;;;2.90;;
1987;SDS011;12775;46.994;15.498;2024-02-21T10:28:22;4.24;;;3.00;;
1987;SDS011;12775;46.994;15.498;2024-02-21T10:30:50;8.10;;;3.70;;
1987;SDS011;12775;46.994;15.498;2024-02-21T10:33:16;5.94;;;3.00;;
1987;SDS011;12775;46.994;15.498;2024-02-21T10:35:44;3.16;;;2.54;;
1987;SDS011;12775;46.994;15.498;2024-02-21T10:38:10;4.50;;;2.96;;
1987;SDS011;12775;46.994;15.498;2024-02-21T10:40:37;3.70;;;2.60;;
1987;SDS011;12775;46.994;15.498;2024-02-21T10:43:03;4.04;;;2.72;;
1987;SDS011;12775;46.994;15.498;2024-02-21T10:45:32;3.62;;;3.22;;
1987;SDS011;12775;46.994;15.498;2024-02-21T10:48:01;5.74;;;3.80;;
1987;SDS011;12775;46.994;15.498;2024-02-21T10:50:26;7.26;;;2.60;;
1987;SDS011;12775;46.994;15.498;2024-02-21T10:52:58;3.16;;;2.52;;
1987;SDS011;12775;46.994;15.498;2024-02-21T10:55:26;4.74;;;3.26;;
1987;SDS011;12775;46.994;15.498;2024-02-21T10:57:51;3.48;;;2.76;;
1987;SDS011;12775;46.994;15.498;2024-02-21T11:00:17;4.30;;;3.16;;
1987;SDS011;12775;46.994;15.498;2024-02-21T11:02:46;6.34;;;3.90;;
1987;SDS011;12775;46.994;15.498;2024-02-21T11:05:11;5.20;;;3.24;;
1987;SDS011;12775;46.994;15.498;2024-02-21T11:07:38;7.06;;;3.00;;
1987;SDS011;12775;46.994;15.498;2024-02-21T11:10:05;4.72;;;3.00;;
1987;SDS011;12775;46.994;15.498;2024-02-21T11:12:32;3.20;;;2.54;;
1987;SDS011;12775;46.994;15.498;2024-02-21T11:15:03;2.52;;;2.32;;
1987;SDS011;12775;46.994;15.498;2024-02-21T11:17:32;3.64;;;2.58;;
1987;SDS011;12775;46.994;15.498;2024-02-21T11:20:10;3.82;;;3.30;;
1987;SDS011;12775;46.994;15.498;2024-02-21T11:22:25;7.12;;;3.16;;
1987;SDS011;12775;46.994;15.498;2024-02-21T11:24:52;4.08;;;2.54;;
1987;SDS011;12775;46.994;15.498;2024-02-21T11:27:19;3.86;;;2.50;;
1987;SDS011;12775;46.994;15.498;2024-02-21T11:29:46;4.84;;;2.88;;
1987;SDS011;12775;46.994;15.498;2024-02-21T11:32:14;6.78;;;2.68;;
1987;SDS011;12775;46.994;15.498;2024-02-21T11:34:41;4.00;;;2.38;;
1987;SDS011;12775;46.994;15.498;2024-02-21T11:37:13;4.46;;;2.30;;
1987;SDS011;12775;46.994;15.498;2024-02-21T11:39:40;5.90;;;2.52;;
1987;SDS011;12775;46.994;15.498;2024-02-21T11:42:07;4.96;;;2.22;;
1987;SDS011;12775;46.994;15.498;2024-02-21T11:44:34;2.66;;;2.42;;
1987;SDS011;12775;46.994;15.498;2024-02-21T11:47:00;3.70;;;2.50;;
1987;SDS011;12775;46.994;15.498;2024-02-21T11:49:28;3.70;;;2.12;;
1987;SDS011;12775;46.994;15.498;2024-02-21T11:52:00;1.72;;;1.40;;
1987;SDS011;12775;46.994;15.498;2024-02-21T11:54:27;3.14;;;1.92;;
1987;SDS011;12775;46.994;15.498;2024-02-21T11:56:54;2.24;;;1.52;;
1987;SDS011;12775;46.994;15.498;2024-02-21T11:59:20;2.24;;;1.60;;
1987;SDS011;12775;46.994;15.498;2024-02-21T12:01:48;3.02;;;1.70;;
1987;SDS011;12775;46.994;15.498;2024-02-21T12:04:15;4.34;;;2.04;;
1987;SDS011;12775;46.994;15.498;2024-02-21T12:06:44;4.18;;;1.98;;
1987;SDS011;12775;46.994;15.498;2024-02-21T12:09:15;1.52;;;1.42;;
1987;SDS011;12775;46.994;15.498;2024-02-21T12:11:43;1.80;;;1.30;;
1987;SDS011;12775;46.994;15.498;2024-02-21T12:14:10;2.18;;;1.72;;
1987;SDS011;12775;46.994;15.498;2024-02-21T12:16:36;3.10;;;1.70;;
1987;SDS011;12775;46.994;15.498;2024-02-21T12:19:03;1.88;;;1.68;;
1987;SDS011;12775;46.994;15.498;2024-02-21T12:21:31;1.90;;;1.70;;
1987;SDS011;12775;46.994;15.498;2024-02-21T12:23:57;2.28;;;1.66;;
1987;SDS011;12775;46.994;15.498;2024-02-21T12:26:24;2.36;;;1.84;;
1987;SDS011;12775;46.994;15.498;2024-02-21T12:28:50;2.76;;;1.76;;
1987;SDS011;12775;46.994;15.498;2024-02-21T12:31:17;1.66;;;1.40;;
1987;SDS011;12775;46.994;15.498;2024-02-21T12:33:43;1.72;;;1.62;;
1987;SDS011;12775;46.994;15.498;2024-02-21T12:36:10;2.10;;;1.46;;
1987;SDS011;12775;46.994;15.498;2024-02-21T12:38:37;2.32;;;1.36;;
1987;SDS011;12775;46.994;15.498;2024-02-21T12:41:03;2.20;;;2.00;;
1987;SDS011;12775;46.994;15.498;2024-02-21T12:43:30;2.62;;;1.68;;
1987;SDS011;12775;46.994;15.498;2024-02-21T12:45:56;2.00;;;1.74;;
1987;SDS011;12775;46.994;15.498;2024-02-21T12:48:23;2.54;;;1.54;;
1987;SDS011;12775;46.994;15.498;2024-02-21T12:50:50;1.30;;;1.20;;
1987;SDS011;12775;46.994;15.498;2024-02-21T12:53:17;2.04;;;1.84;;
1987;SDS011;12775;46.994;15.498;2024-02-21T12:55:45;2.00;;;1.58;;
1987;SDS011;12775;46.994;15.498;2024-02-21T12:58:11;2.42;;;1.80;;
1987;SDS011;12775;46.994;15.498;2024-02-21T13:00:37;2.56;;;1.68;;
1987;SDS011;12775;46.994;15.498;2024-02-21T13:03:04;2.36;;;1.80;;
1987;SDS011;12775;46.994;15.498;2024-02-21T13:05:31;2.70;;;1.70;;
1987;SDS011;12775;46.994;15.498;2024-02-21T13:07:58;2.40;;;1.76;;
1987;SDS011;12775;46.994;15.498;2024-02-21T13:10:24;3.82;;;1.46;;
1987;SDS011;12775;46.994;15.498;2024-02-21T13:12:51;1.88;;;1.38;;
1987;SDS011;12775;46.994;15.498;2024-02-21T13:15:19;2.20;;;1.68;;
1987;SDS011;12775;46.994;15.498;2024-02-21T13:17:45;2.00;;;1.48;;
1987;SDS011;12775;46.994;15.498;2024-02-21T13:20:13;1.96;;;1.56;;
1987;SDS011;12775;46.994;15.498;2024-02-21T13:22:40;2.12;;;1.40;;
1987;SDS011;12775;46.994;15.498;2024-02-21T13:25:06;3.02;;;1.80;;
1987;SDS011;12775;46.994;15.498;2024-02-21T13:27:34;3.92;;;1.94;;
1987;SDS011;12775;46.994;15.498;2024-02-21T13:30:01;2.20;;;1.66;;
1987;SDS011;12775;46.994;15.498;2024-02-21T13:32:28;2.26;;;1.86;;
1987;SDS011;12775;46.994;15.498;2024-02-21T13:34:54;4.16;;;1.50;;
1987;SDS011;12775;46.994;15.498;2024-02-21T13:37:22;1.58;;;1.26;;
1987;SDS011;12775;46.994;15.498;2024-02-21T13:39:48;1.66;;;1.56;;
1987;SDS011;12775;46.994;15.498;2024-02-21T13:42:15;4.12;;;1.78;;
1987;SDS011;12775;46.994;15.498;2024-02-21T13:44:41;1.34;;;1.14;;
1987;SDS011;12775;46.994;15.498;2024-02-21T13:47:08;4.34;;;1.66;;
1987;SDS011;12775;46.994;15.498;2024-02-21T13:49:36;3.74;;;1.80;;
1987;SDS011;12775;46.994;15.498;2024-02-21T13:52:02;3.20;;;1.98;;
1987;SDS011;12775;46.994;15.498;2024-02-21T13:54:30;1.70;;;1.22;;
1987;SDS011;12775;46.994;15.498;2024-02-21T13:56:56;1.62;;;1.18;;
1987;SDS011;12775;46.994;15.498;2024-02-21T13:59:23;5.48;;;1.38;;
1987;SDS011;12775;46.994;15.498;2024-02-21T14:01:50;2.18;;;1.28;;
1987;SDS011;12775;46.994;15.498;2024-02-21T14:04:16;1.30;;;1.06;;
1987;SDS011;12775;46.994;15.498;2024-02-21T14:06:44;1.62;;;1.40;;
1987;SDS011;12775;46.994;15.498;2024-02-21T14:09:10;1.70;;;1.02;;
1987;SDS011;12775;46.994;15.498;2024-02-21T14:11:38;3.76;;;1.56;;
1987;SDS011;12775;46.994;15.498;2024-02-21T14:14:04;5.28;;;1.68;;
1987;SDS011;12775;46.994;15.498;2024-02-21T14:16:33;2.58;;;1.08;;
1987;SDS011;12775;46.994;15.498;2024-02-21T14:18:59;3.60;;;1.88;;
1987;SDS011;12775;46.994;15.498;2024-02-21T14:21:26;2.48;;;1.32;;
1987;SDS011;12775;46.994;15.498;2024-02-21T14:23:53;2.54;;;1.46;;
1987;SDS011;12775;46.994;15.498;2024-02-21T14:26:21;1.52;;;0.90;;
1987;SDS011;12775;46.994;15.498;2024-02-21T14:28:47;1.68;;;1.58;;
1987;SDS011;12775;46.994;15.498;2024-02-21T14:31:14;2.58;;;1.30;;
1987;SDS011;12775;46.994;15.498;2024-02-21T14:33:41;3.06;;;1.50;;
1987;SDS011;12775;46.994;15.498;2024-02-21T14:36:07;2.06;;;1.22;;
1987;SDS011;12775;46.994;15.498;2024-02-21T14:38:34;3.94;;;1.52;;
1987;SDS011;12775;46.994;15.498;2024-02-21T14:41:01;1.88;;;1.00;;
1987;SDS011;12775;46.994;15.498;2024-02-21T14:43:28;1.36;;;1.18;;